Time;durP1;ratioP1;P1;durP2;ratioP2;P2;SDS_P1;SDS_P2;PMS_P1;PMS_P2;Temp;Humidity;BMP_temperature;BMP_pressure;BME280_temperature;BME280_humidity;BME280_pressure;Samples;Min_cycle;Max_cycle;Signal;HPM_P1;HPM_P2
2022/07/06 00:00:51;;;;;;;;;;;;;;;24.89;51.51;100197.03;2056072;28;19979;-54
2022/07/06 00:01:52;;;;;;;;;;;;;;;24.91;51.62;100205.09;2066308;28;19960;-54
2022/07/06 00:02:52;;;;;;;;;;;;;;;24.89;51.70;100194.28;2057695;28;20331;-55
2022/07/06 00:03:52;;;;;;;;;;;;;;;24.90;51.82;100200.66;2059485;28;20107;-54
2022/07/06 00:04:52;;;;;;;;;;;;;;;24.90;51.54;100200.66;2059783;28;20007;-54
2022/07/06 00:06:02;;;;;;;;;;;;;;;24.89;51.80;100198.91;2054970;28;20375;-54
2022/07/06 00:07:02;;;;;;;;;;;;;;;24.90;51.61;100203.41;2057110;28;19917;-53
2022/07/06 00:08:03;;;;;;;;;;;;;;;24.90;51.77;100206.16;2049007;28;19933;-53
2022/07/06 00:09:04;;;;;;;;;;;;;;;24.90;51.59;100208.91;2057909;28;20012;-54
2022/07/06 00:10:05;;;;;;;;;;;;;;;24.89;51.69;100201.66;2051197;28;19910;-53
2022/07/06 00:11:05;;;;;;;;;;;;;;;24.89;51.60;100204.44;2051021;28;20251;-53
2022/07/06 00:12:06;;;;;;;;;;;;;;;24.90;51.52;100203.41;2059803;28;19906;-54
2022/07/06 00:13:06;;;;;;;;;;;;;;;24.90;51.55;100201.50;2061038;28;20255;-54
2022/07/06 00:14:07;;;;;;;;;;;;;;;24.89;51.68;100202.56;2056566;28;19939;-54
2022/07/06 00:15:07;;;;;;;;;;;;;;;24.90;51.63;100206.16;2060432;28;19976;-54
2022/07/06 00:16:07;;;;;;;;;;;;;;;24.89;51.62;100197.03;2059209;28;20657;-47
2022/07/06 00:17:08;;;;;;;;;;;;;;;24.89;51.79;100208.06;2059262;28;20171;-46
2022/07/06 00:18:08;;;;;;;;;;;;;;;24.89;51.69;100198.91;2058671;28;20277;-47
2022/07/06 00:19:08;;;;;;;;;;;;;;;24.89;51.62;100193.41;2058810;28;20024;-46
2022/07/06 00:20:09;;;;;;;;;;;;;;;24.89;51.77;100201.66;2059919;28;20162;-46
2022/07/06 00:21:09;;;;;;;;;;;;;;;24.88;51.79;100200.81;2058766;28;19929;-46
2022/07/06 00:22:09;;;;;;;;;;;;;;;24.89;51.69;100201.66;2058792;28;19918;-46
2022/07/06 00:23:10;;;;;;;;;;;;;;;24.88;51.77;100194.47;2056069;28;19932;-46
2022/07/06 00:24:10;;;;;;;;;;;;;;;24.89;51.65;100207.19;2056487;28;19922;-46
2022/07/06 00:25:11;;;;;;;;;;;;;;;24.88;51.80;100211.00;2056770;28;19913;-47
2022/07/06 00:26:11;;;;;;;;;;;;;;;24.88;51.85;100211.00;2056059;28;19913;-50
2022/07/06 00:27:11;;;;;;;;;;;;;;;24.88;51.64;100208.25;2058628;28;20004;-48
2022/07/06 00:28:11;;;;;;;;;;;;;;;24.88;51.68;100211.00;2057302;28;20808;-46
2022/07/06 00:29:12;;;;;;;;;;;;;;;24.86;51.95;100210.31;2058282;28;19917;-46
2022/07/06 00:30:12;;;;;;;;;;;;;;;24.87;51.94;100212.91;2059167;28;20015;-46
2022/07/06 00:31:12;;;;;;;;;;;;;;;24.87;51.73;100215.66;2059232;28;19991;-47
2022/07/06 00:32:13;;;;;;;;;;;;;;;24.86;51.73;100215.84;2058697;28;20332;-49
2022/07/06 00:33:13;;;;;;;;;;;;;;;24.87;51.65;100217.56;2057073;28;19917;-49
2022/07/06 00:34:14;;;;;;;;;;;;;;;24.87;51.68;100214.81;2060091;28;19914;-49
2022/07/06 00:35:14;;;;;;;;;;;;;;;24.87;51.85;100214.81;2060978;28;19913;-47
2022/07/06 00:36:14;;;;;;;;;;;;;;;24.86;51.68;100213.06;2058506;28;19954;-46
2022/07/06 00:37:15;;;;;;;;;;;;;;;24.86;51.81;100210.31;2060126;28;19917;-47
2022/07/06 00:38:15;;;;;;;;;;;;;;;24.86;51.68;100215.84;2057316;28;19963;-48
2022/07/06 00:39:18;;;;;;;;;;;;;;;24.87;51.77;100214.81;2052731;28;19917;-47
2022/07/06 00:40:19;;;;;;;;;;;;;;;24.87;51.64;100212.91;2051788;28;19918;-45
2022/07/06 00:41:19;;;;;;;;;;;;;;;24.87;51.63;100209.28;2051506;28;19917;-46
2022/07/06 00:42:19;;;;;;;;;;;;;;;24.88;51.57;100213.75;2059688;28;19917;-46
2022/07/06 00:43:20;;;;;;;;;;;;;;;24.86;51.63;100200.16;2060265;28;19909;-47
2022/07/06 00:44:20;;;;;;;;;;;;;;;24.86;51.72;100210.31;2059401;28;19913;-47
2022/07/06 00:45:20;;;;;;;;;;;;;;;24.86;51.76;100207.56;2058662;28;20590;-46
2022/07/06 00:46:30;;;;;;;;;;;;;;;24.86;51.91;100213.06;2059401;28;20017;-46
2022/07/06 00:47:30;;;;;;;;;;;;;;;24.86;51.72;100207.56;2053731;28;19918;-47
2022/07/06 00:48:31;;;;;;;;;;;;;;;24.86;51.70;100207.56;2059587;28;19917;-45
2022/07/06 00:50:50;;;;;;;;;;;;;;;24.84;51.86;100204.13;2057970;28;19972;-46
2022/07/06 00:51:50;;;;;;;;;;;;;;;24.86;51.72;100213.06;2059774;28;20356;-46
2022/07/06 00:52:50;;;;;;;;;;;;;;;24.86;51.83;100210.31;2057226;28;19921;-47
2022/07/06 00:53:51;;;;;;;;;;;;;;;24.85;51.78;100205.88;2062057;28;20012;-46
2022/07/06 00:54:52;;;;;;;;;;;;;;;24.84;51.73;100202.22;2057019;28;19924;-46
2022/07/06 00:55:52;;;;;;;;;;;;;;;24.85;51.89;100203.09;2060983;28;19963;-47
2022/07/06 00:56:53;;;;;;;;;;;;;;;24.85;51.98;100205.88;2053850;28;19921;-46
2022/07/06 00:57:54;;;;;;;;;;;;;;;24.85;51.82;100198.44;2056036;28;19921;-46
2022/07/06 00:58:54;;;;;;;;;;;;;;;24.85;51.77;100194.84;2059653;28;20231;-45
2022/07/06 00:59:55;;;;;;;;;;;;;;;24.85;51.77;100186.56;2058657;28;19995;-46
2022/07/06 01:00:56;;;;;;;;;;;;;;;24.84;51.95;100193.09;2054433;28;19918;-45
2022/07/06 01:01:56;;;;;;;;;;;;;;;24.84;52.01;100184.81;2055999;28;19918;-46
2022/07/06 01:02:57;;;;;;;;;;;;;;;24.84;52.03;100184.81;2059585;28;19928;-46
2022/07/06 01:03:57;;;;;;;;;;;;;;;24.85;51.81;100190.16;2060595;28;19917;-47
2022/07/06 01:04:57;;;;;;;;;;;;;;;24.84;51.90;100185.69;2060643;28;20579;-46
2022/07/06 01:05:57;;;;;;;;;;;;;;;24.84;51.84;100182.06;2054843;28;19964;-46
2022/07/06 01:06:58;;;;;;;;;;;;;;;24.84;52.12;100177.41;2059686;28;19999;-47
2022/07/06 01:08:00;;;;;;;;;;;;;;;24.84;51.90;100176.56;2058823;28;19917;-45
2022/07/06 01:09:01;;;;;;;;;;;;;;;24.84;51.93;100187.59;2056392;28;19910;-45
2022/07/06 01:10:04;;;;;;;;;;;;;;;24.83;51.98;100175.72;2062184;28;20458;-46
2022/07/06 01:11:05;;;;;;;;;;;;;;;24.83;51.91;100185.88;2065603;28;20686;-47
2022/07/06 01:12:05;;;;;;;;;;;;;;;24.81;52.04;100175.88;2060092;28;19920;-47
2022/07/06 01:13:05;;;;;;;;;;;;;;;24.83;51.94;100181.22;2059339;28;19945;-46
2022/07/06 01:14:07;;;;;;;;;;;;;;;24.82;52.11;100174.00;2060402;28;20020;-46
2022/07/06 01:15:08;;;;;;;;;;;;;;;24.81;52.10;100175.88;2059268;28;20009;-46
2022/07/06 01:16:09;;;;;;;;;;;;;;;24.82;51.95;100174.00;2063304;28;20000;-45
2022/07/06 01:17:09;;;;;;;;;;;;;;;24.83;52.04;100174.84;2061017;28;19941;-47
2022/07/06 01:18:11;;;;;;;;;;;;;;;24.81;51.89;100167.63;2058214;28;20301;-46
2022/07/06 01:19:11;;;;;;;;;;;;;;;24.82;52.05;100174.00;2058136;28;20040;-49
2022/07/06 01:20:13;;;;;;;;;;;;;;;24.81;52.14;100167.63;2060531;28;19917;-46
2022/07/06 01:21:14;;;;;;;;;;;;;;;24.81;51.85;100164.84;2059694;28;19917;-46
2022/07/06 01:22:15;;;;;;;;;;;;;;;24.81;52.02;100167.63;2060720;28;19924;-46
2022/07/06 01:23:15;;;;;;;;;;;;;;;24.81;51.96;100170.38;2057814;28;19918;-46
2022/07/06 01:24:16;;;;;;;;;;;;;;;24.82;52.03;100168.50;2064324;28;19923;-48
2022/07/06 01:25:17;;;;;;;;;;;;;;;24.82;51.90;100174.00;2050900;28;19968;-45
2022/07/06 01:26:19;;;;;;;;;;;;;;;24.83;52.11;100169.34;2052091;28;19925;-48
2022/07/06 01:27:19;;;;;;;;;;;;;;;24.82;52.02;100174.00;2043618;28;19914;-46
2022/07/06 01:28:19;;;;;;;;;;;;;;;24.83;51.86;100170.19;2048063;28;20600;-46
2022/07/06 01:29:19;;;;;;;;;;;;;;;24.83;52.11;100180.38;2061979;28;20238;-46
2022/07/06 01:30:20;;;;;;;;;;;;;;;24.83;52.11;100170.19;2061146;28;20154;-47
2022/07/06 01:31:21;;;;;;;;;;;;;;;24.83;51.90;100189.50;2062600;28;20415;-45
2022/07/06 01:32:22;;;;;;;;;;;;;;;24.84;52.10;100188.44;2068915;28;20002;-47
2022/07/06 01:33:22;;;;;;;;;;;;;;;24.83;51.96;100183.13;2059692;28;19948;-47
2022/07/06 01:34:22;;;;;;;;;;;;;;;24.84;52.16;100193.09;2062979;28;19925;-48
2022/07/06 01:35:24;;;;;;;;;;;;;;;24.83;52.17;100186.75;2060396;28;20020;-47
2022/07/06 01:36:24;;;;;;;;;;;;;;;24.81;52.08;100181.41;2058687;28;20303;-46
2022/07/06 01:37:24;;;;;;;;;;;;;;;24.82;52.07;100185.03;2053429;28;20285;-47
2022/07/06 01:38:25;;;;;;;;;;;;;;;24.83;52.02;100185.88;2054891;28;20376;-49
2022/07/06 01:39:25;;;;;;;;;;;;;;;24.81;52.17;100186.91;2054934;28;20052;-45
2022/07/06 01:40:25;;;;;;;;;;;;;;;24.81;52.00;100175.88;2060393;28;19972;-46
2022/07/06 01:41:26;;;;;;;;;;;;;;;24.82;52.29;100179.53;2060258;28;20645;-46
2022/07/06 01:42:26;;;;;;;;;;;;;;;24.81;52.18;100178.63;2058106;28;19967;-46
2022/07/06 01:43:27;;;;;;;;;;;;;;;24.81;52.21;100172.28;2060844;28;19918;-46
2022/07/06 01:44:27;;;;;;;;;;;;;;;24.81;52.04;100184.16;2060698;28;19913;-45
2022/07/06 01:45:31;;;;;;;;;;;;;;;24.81;52.20;100186.91;2060124;28;19918;-45
2022/07/06 01:46:32;;;;;;;;;;;;;;;24.82;52.19;100176.75;2057835;28;20078;-47
2022/07/06 01:47:33;;;;;;;;;;;;;;;24.81;52.35;100167.63;2061273;28;20052;-46
2022/07/06 01:48:33;;;;;;;;;;;;;;;24.81;52.11;100173.13;2047473;28;19918;-46
2022/07/06 01:49:34;;;;;;;;;;;;;;;24.80;52.14;100174.19;2045922;28;19965;-45
2022/07/06 01:50:34;;;;;;;;;;;;;;;24.81;52.08;100172.28;2057542;28;19917;-48
2022/07/06 01:51:34;;;;;;;;;;;;;;;24.81;52.15;100173.13;2059502;28;20020;-46
2022/07/06 01:52:35;;;;;;;;;;;;;;;24.81;52.34;100172.28;2058215;28;19968;-45
2022/07/06 01:53:35;;;;;;;;;;;;;;;24.80;52.33;100171.44;2057080;28;20232;-47
2022/07/06 01:54:36;;;;;;;;;;;;;;;24.80;52.22;100176.94;2054888;28;20424;-46
2022/07/06 01:55:36;;;;;;;;;;;;;;;24.80;52.41;100168.66;2055621;28;20388;-45
2022/07/06 01:56:36;;;;;;;;;;;;;;;24.80;52.41;100168.66;2058665;28;20000;-45
2022/07/06 01:57:36;;;;;;;;;;;;;;;24.79;52.30;100178.00;2057980;28;20318;-46
2022/07/06 01:58:37;;;;;;;;;;;;;;;24.79;52.29;100175.25;2051488;28;19932;-47
2022/07/06 01:59:38;;;;;;;;;;;;;;;24.80;52.20;100176.94;2052286;28;20362;-46
2022/07/06 02:00:38;;;;;;;;;;;;;;;24.80;52.37;100173.34;2058215;28;20004;-47
2022/07/06 02:01:39;;;;;;;;;;;;;;;24.79;52.34;100180.75;2066537;28;19975;-46
2022/07/06 02:02:39;;;;;;;;;;;;;;;24.80;52.24;100176.09;2054569;28;19918;-46
2022/07/06 02:03:39;;;;;;;;;;;;;;;24.79;52.19;100178.00;2055615;28;19918;-49
2022/07/06 02:04:39;;;;;;;;;;;;;;;24.79;52.08;100169.72;2058402;28;19917;-45
2022/07/06 02:05:40;;;;;;;;;;;;;;;24.79;52.27;100169.72;2059305;28;19913;-46
2022/07/06 02:06:40;;;;;;;;;;;;;;;24.79;52.13;100169.72;2053439;28;19924;-47
2022/07/06 02:07:40;;;;;;;;;;;;;;;24.80;52.05;100165.06;2058190;28;20019;-46
2022/07/06 02:08:41;;;;;;;;;;;;;;;24.80;52.08;100165.91;2055938;28;20539;-45
2022/07/06 02:09:42;;;;;;;;;;;;;;;24.80;52.30;100165.06;2060934;28;19917;-46
2022/07/06 02:10:42;;;;;;;;;;;;;;;24.80;52.30;100159.53;2060200;28;20095;-46
2022/07/06 02:11:43;;;;;;;;;;;;;;;24.80;52.33;100160.41;2052905;28;19918;-47
2022/07/06 02:12:43;;;;;;;;;;;;;;;24.79;52.20;100161.44;2046865;28;19988;-46
2022/07/06 02:13:44;;;;;;;;;;;;;;;24.79;52.24;100166.97;2051504;28;20037;-47
2022/07/06 02:14:44;;;;;;;;;;;;;;;24.78;52.43;100168.00;2055759;28;19914;-47
2022/07/06 02:15:45;;;;;;;;;;;;;;;24.79;52.23;100164.22;2056998;28;19932;-46
2022/07/06 02:16:45;;;;;;;;;;;;;;;24.80;52.22;100165.06;2059717;28;19956;-47
2022/07/06 02:17:45;;;;;;;;;;;;;;;24.80;52.35;100176.09;2059381;28;19927;-46
2022/07/06 02:18:46;;;;;;;;;;;;;;;24.80;52.24;100173.34;2057787;28;20351;-46
2022/07/06 02:19:46;;;;;;;;;;;;;;;24.80;52.31;100170.56;2060961;28;19918;-47
2022/07/06 02:20:46;;;;;;;;;;;;;;;24.79;52.31;100166.97;2059969;28;19922;-46
2022/07/06 02:21:47;;;;;;;;;;;;;;;24.79;52.20;100178.00;2060609;28;20406;-47
2022/07/06 02:22:47;;;;;;;;;;;;;;;24.79;52.24;100177.13;2059636;28;19918;-46
2022/07/06 02:23:47;;;;;;;;;;;;;;;24.79;52.41;100175.25;2060514;28;19918;-47
2022/07/06 02:24:47;;;;;;;;;;;;;;;24.79;52.27;100166.97;2056216;28;19925;-47
2022/07/06 02:25:48;;;;;;;;;;;;;;;24.80;52.22;100170.56;2061834;28;19921;-48
2022/07/06 02:26:48;;;;;;;;;;;;;;;24.79;52.19;100172.47;2057950;28;19999;-46
2022/07/06 02:27:48;;;;;;;;;;;;;;;24.79;52.38;100168.84;2060125;28;20248;-46
2022/07/06 02:28:48;;;;;;;;;;;;;;;24.79;52.32;100163.31;2058421;28;19917;-46
2022/07/06 02:29:49;;;;;;;;;;;;;;;24.79;52.43;100164.22;2059573;28;19982;-48
2022/07/06 02:30:49;;;;;;;;;;;;;;;24.78;52.44;100168.00;2061318;28;19924;-47
2022/07/06 02:31:49;;;;;;;;;;;;;;;24.78;52.27;100164.38;2057551;28;19917;-47
2022/07/06 02:32:49;;;;;;;;;;;;;;;24.78;52.31;100161.63;2055358;28;19960;-46
2022/07/06 02:33:50;;;;;;;;;;;;;;;24.76;52.30;100164.56;2059145;28;19920;-45
2022/07/06 02:34:50;;;;;;;;;;;;;;;24.78;52.50;100173.50;2059764;28;19924;-47
2022/07/06 02:35:50;;;;;;;;;;;;;;;24.78;52.46;100178.16;2060626;28;19914;-47
2022/07/06 02:36:51;;;;;;;;;;;;;;;24.77;52.51;100177.31;2058129;28;20438;-48
2022/07/06 02:37:51;;;;;;;;;;;;;;;24.76;52.40;100164.56;2060001;28;20653;-46
2022/07/06 02:38:51;;;;;;;;;;;;;;;24.77;52.35;100171.81;2060078;28;20353;-47
2022/07/06 02:39:52;;;;;;;;;;;;;;;24.77;52.54;100177.31;2060012;28;19917;-46
2022/07/06 02:40:52;;;;;;;;;;;;;;;24.77;52.39;100176.47;2050718;28;19988;-46
2022/07/06 02:41:52;;;;;;;;;;;;;;;24.76;52.49;100170.06;2051429;28;19961;-46
2022/07/06 02:42:52;;;;;;;;;;;;;;;24.77;52.50;100171.81;2060412;28;20189;-46
2022/07/06 02:43:53;;;;;;;;;;;;;;;24.77;52.54;100173.72;2061078;28;19968;-46
2022/07/06 02:44:53;;;;;;;;;;;;;;;24.76;52.42;100164.56;2059336;28;19917;-46
2022/07/06 02:45:53;;;;;;;;;;;;;;;24.76;52.42;100159.03;2060481;28;19917;-47
2022/07/06 02:46:54;;;;;;;;;;;;;;;24.76;52.41;100169.22;2058414;28;19924;-47
2022/07/06 02:47:56;;;;;;;;;;;;;;;24.75;52.56;100162.84;2060279;28;19917;-46
2022/07/06 02:48:57;;;;;;;;;;;;;;;24.76;52.56;100159.03;2060147;28;19917;-45
2022/07/06 02:49:57;;;;;;;;;;;;;;;24.75;52.67;100151.84;2052816;28;20033;-49
2022/07/06 02:50:58;;;;;;;;;;;;;;;24.75;52.35;100149.06;2049686;28;20352;-46
2022/07/06 02:51:59;;;;;;;;;;;;;;;24.76;52.44;100150.78;2059021;28;20206;-47
2022/07/06 02:53:00;;;;;;;;;;;;;;;24.76;52.49;100152.69;2051101;28;19926;-50
2022/07/06 02:54:00;;;;;;;;;;;;;;;24.75;52.54;100157.34;2053065;28;19918;-46
2022/07/06 02:55:01;;;;;;;;;;;;;;;24.76;52.38;100158.19;2058940;28;19917;-46
2022/07/06 02:56:01;;;;;;;;;;;;;;;24.76;52.50;100158.19;2059189;28;20231;-45
2022/07/06 02:57:02;;;;;;;;;;;;;;;24.76;52.47;100164.56;2054677;28;19925;-47
2022/07/06 02:58:02;;;;;;;;;;;;;;;24.76;52.41;100175.59;2058355;28;20551;-46
2022/07/06 02:59:02;;;;;;;;;;;;;;;24.75;52.41;100162.84;2055198;28;19925;-47
2022/07/06 03:00:04;;;;;;;;;;;;;;;24.76;52.60;100169.22;2059490;28;19929;-47
2022/07/06 03:01:04;;;;;;;;;;;;;;;24.75;52.32;100168.38;2059004;28;20155;-46
2022/07/06 03:02:05;;;;;;;;;;;;;;;24.76;52.56;100163.72;2058619;28;20073;-46
2022/07/06 03:03:05;;;;;;;;;;;;;;;24.76;52.61;100164.56;2053224;28;20436;-45
2022/07/06 03:04:05;;;;;;;;;;;;;;;24.76;52.59;100175.59;2060631;28;20019;-47
2022/07/06 03:05:06;;;;;;;;;;;;;;;24.76;52.68;100169.22;2060405;28;19917;-49
2022/07/06 03:06:06;;;;;;;;;;;;;;;24.76;52.54;100169.22;2055061;28;20071;-45
2022/07/06 03:07:06;;;;;;;;;;;;;;;24.75;52.56;100168.38;2060209;28;20416;-46
2022/07/06 03:08:07;;;;;;;;;;;;;;;24.76;52.52;100172.81;2061037;28;19949;-46
2022/07/06 03:09:07;;;;;;;;;;;;;;;24.76;52.45;100169.22;2058386;28;19909;-47
2022/07/06 03:10:07;;;;;;;;;;;;;;;24.75;52.37;100179.41;2058544;28;20303;-48
2022/07/06 03:11:08;;;;;;;;;;;;;;;24.76;52.61;100175.59;2057706;28;19940;-46
2022/07/06 03:12:08;;;;;;;;;;;;;;;24.75;52.42;100171.13;2060089;28;20220;-45
2022/07/06 03:13:08;;;;;;;;;;;;;;;24.75;52.60;100162.00;2059933;28;20142;-47
2022/07/06 03:14:09;;;;;;;;;;;;;;;24.76;52.45;100170.06;2059808;28;20395;-47
2022/07/06 03:15:10;;;;;;;;;;;;;;;24.75;52.65;100165.63;2059301;28;20118;-49
2022/07/06 03:16:10;;;;;;;;;;;;;;;24.74;52.57;100166.66;2053006;28;19924;-46
2022/07/06 03:17:10;;;;;;;;;;;;;;;24.76;52.56;100166.47;2058212;28;19925;-45
2022/07/06 03:18:11;;;;;;;;;;;;;;;24.75;52.82;100179.41;2048991;28;20230;-46
2022/07/06 03:19:11;;;;;;;;;;;;;;;24.74;52.50;100169.44;2048217;28;19965;-46
2022/07/06 03:20:11;;;;;;;;;;;;;;;24.74;52.61;100174.94;2055860;28;19941;-47
2022/07/06 03:21:11;;;;;;;;;;;;;;;24.74;52.59;100174.94;2059147;28;20272;-45
2022/07/06 03:22:12;;;;;;;;;;;;;;;24.74;52.65;100177.69;2059284;28;19952;-46
2022/07/06 03:23:12;;;;;;;;;;;;;;;24.74;52.87;100177.69;2061283;28;19933;-47
2022/07/06 03:24:12;;;;;;;;;;;;;;;24.74;52.80;100177.69;2059715;28;19917;-45
2022/07/06 03:25:13;;;;;;;;;;;;;;;24.74;52.70;100182.31;2059498;28;20527;-49
2022/07/06 03:26:13;;;;;;;;;;;;;;;24.73;52.74;100178.72;2059727;28;19972;-46
2022/07/06 03:27:13;;;;;;;;;;;;;;;24.73;52.59;100175.97;2061153;28;20781;-46
2022/07/06 03:28:14;;;;;;;;;;;;;;;24.73;52.74;100178.72;2058907;28;19973;-49
2022/07/06 03:29:14;;;;;;;;;;;;;;;24.74;52.67;100187.84;2060871;28;19995;-47
2022/07/06 03:30:14;;;;;;;;;;;;;;;24.72;52.64;100179.78;2054795;28;19921;-47
2022/07/06 03:31:15;;;;;;;;;;;;;;;24.73;52.82;100178.72;2059758;28;19917;-46
2022/07/06 03:32:15;;;;;;;;;;;;;;;24.72;52.78;100182.53;2060596;28;19940;-46
2022/07/06 03:33:15;;;;;;;;;;;;;;;24.72;52.66;100177.03;2057840;28;19917;-49
2022/07/06 03:34:15;;;;;;;;;;;;;;;24.72;52.77;100182.53;2068737;28;19917;-49
2022/07/06 03:35:16;;;;;;;;;;;;;;;24.73;52.63;100187.00;2057685;28;20375;-46
2022/07/06 03:36:16;;;;;;;;;;;;;;;24.73;52.71;100188.91;2053662;28;20371;-46
2022/07/06 03:37:17;;;;;;;;;;;;;;;24.73;52.61;100187.00;2053418;28;19929;-47
2022/07/06 03:38:17;;;;;;;;;;;;;;;24.73;52.65;100189.75;2055770;28;19921;-48
2022/07/06 03:39:18;;;;;;;;;;;;;;;24.73;52.62;100198.00;2060993;28;19921;-45
2022/07/06 03:40:18;;;;;;;;;;;;;;;24.73;52.70;100195.25;2056362;28;20322;-45
2022/07/06 03:41:19;;;;;;;;;;;;;;;24.73;52.55;100197.16;2049594;28;19921;-45
2022/07/06 03:42:19;;;;;;;;;;;;;;;24.73;52.64;100189.75;2044162;28;19918;-50
2022/07/06 03:43:20;;;;;;;;;;;;;;;24.72;52.63;100196.31;2054862;28;19930;-46
2022/07/06 03:44:20;;;;;;;;;;;;;;;24.73;52.57;100192.50;2060563;28;20243;-47
2022/07/06 03:45:20;;;;;;;;;;;;;;;24.73;52.77;100189.75;2056163;28;19992;-45
2022/07/06 03:46:21;;;;;;;;;;;;;;;24.73;52.85;100198.00;2059097;28;20053;-49
2022/07/06 03:47:21;;;;;;;;;;;;;;;24.72;52.78;100196.31;2053794;28;19918;-47
2022/07/06 03:48:22;;;;;;;;;;;;;;;24.74;52.66;100201.63;2057937;28;19984;-47
2022/07/06 03:49:26;;;;;;;;;;;;;;;24.72;52.63;100196.31;2060009;28;19914;-46
2022/07/06 03:50:27;;;;;;;;;;;;;;;24.74;52.56;100204.38;2053582;28;20001;-48
2022/07/06 03:51:27;;;;;;;;;;;;;;;24.73;52.56;100200.78;2050308;28;19936;-47
2022/07/06 03:52:27;;;;;;;;;;;;;;;24.73;52.71;100200.78;2061419;28;20355;-46
2022/07/06 03:53:27;;;;;;;;;;;;;;;24.72;52.54;100199.06;2057578;28;20293;-47
2022/07/06 03:54:28;;;;;;;;;;;;;;;24.72;52.64;100207.34;2060706;28;19918;-47
2022/07/06 03:55:28;;;;;;;;;;;;;;;24.73;52.74;100202.69;2058132;28;19910;-46
2022/07/06 03:56:28;;;;;;;;;;;;;;;24.72;52.62;100212.84;2051060;28;20552;-48
2022/07/06 03:57:29;;;;;;;;;;;;;;;24.72;52.70;100212.84;2051107;28;20411;-46
2022/07/06 03:58:29;;;;;;;;;;;;;;;24.73;52.63;100213.69;2057893;28;19936;-48
2022/07/06 03:59:29;;;;;;;;;;;;;;;24.72;52.74;100207.34;2060385;28;19979;-45
2022/07/06 04:00:29;;;;;;;;;;;;;;;24.72;52.59;100212.84;2056240;28;20474;-46
2022/07/06 04:01:30;;;;;;;;;;;;;;;24.72;52.78;100212.84;2057762;28;19917;-46
2022/07/06 04:02:31;;;;;;;;;;;;;;;24.72;52.83;100210.09;2059486;28;19944;-47
2022/07/06 04:03:31;;;;;;;;;;;;;;;24.72;52.73;100211.97;2056246;28;19910;-49
2022/07/06 04:04:33;;;;;;;;;;;;;;;24.72;52.78;100209.22;2060338;28;19918;-46
2022/07/06 04:05:33;;;;;;;;;;;;;;;24.71;52.81;100202.84;2056796;28;19917;-46
2022/07/06 04:06:36;;;;;;;;;;;;;;;24.71;52.96;100205.59;2059611;28;19992;-46
2022/07/06 04:07:37;;;;;;;;;;;;;;;24.71;52.82;100205.59;2060843;28;20343;-49
2022/07/06 04:08:37;;;;;;;;;;;;;;;24.70;52.98;100208.56;2056449;28;19999;-46
2022/07/06 04:09:37;;;;;;;;;;;;;;;24.70;52.82;100209.41;2053128;28;19997;-47
2022/07/06 04:10:38;;;;;;;;;;;;;;;24.70;53.02;100203.06;2057387;28;19913;-49
2022/07/06 04:11:38;;;;;;;;;;;;;;;24.70;52.90;100206.66;2059934;28;20242;-48
2022/07/06 04:12:42;;;;;;;;;;;;;;;24.70;53.11;100214.94;2063483;28;20299;-47
2022/07/06 04:13:42;;;;;;;;;;;;;;;24.69;52.93;100210.44;2057343;28;20352;-45
2022/07/06 04:14:43;;;;;;;;;;;;;;;24.69;52.85;100210.44;2060646;28;19933;-47
2022/07/06 04:15:43;;;;;;;;;;;;;;;24.70;52.81;100203.06;2057173;28;20187;-47
2022/07/06 04:16:43;;;;;;;;;;;;;;;24.70;52.89;100205.81;2063592;28;20539;-46
2022/07/06 04:17:53;;;;;;;;;;;;;;;24.70;52.86;100201.16;2062666;28;19971;-48
2022/07/06 04:18:53;;;;;;;;;;;;;;;24.70;53.02;100198.41;2058374;28;20374;-46
2022/07/06 04:19:53;;;;;;;;;;;;;;;24.69;52.88;100202.16;2058326;28;19925;-47
2022/07/06 04:20:53;;;;;;;;;;;;;;;24.70;52.80;100198.41;2059232;28;19909;-48
2022/07/06 04:21:54;;;;;;;;;;;;;;;24.70;52.90;100198.41;2058343;28;20608;-46
2022/07/06 04:22:54;;;;;;;;;;;;;;;24.70;52.91;100192.03;2059206;28;20225;-45
2022/07/06 04:23:54;;;;;;;;;;;;;;;24.70;52.86;100190.13;2060482;28;20616;-49
2022/07/06 04:24:55;;;;;;;;;;;;;;;24.70;52.77;100192.03;2057784;28;19949;-48
2022/07/06 04:25:55;;;;;;;;;;;;;;;24.69;52.91;100193.91;2059602;28;19917;-46
2022/07/06 04:26:55;;;;;;;;;;;;;;;24.69;52.87;100196.66;2061662;28;20303;-47
2022/07/06 04:27:56;;;;;;;;;;;;;;;24.69;52.83;100191.16;2057638;28;20419;-48
2022/07/06 04:28:56;;;;;;;;;;;;;;;24.68;52.99;100192.19;2060585;28;20517;-45
2022/07/06 04:29:56;;;;;;;;;;;;;;;24.70;52.83;100192.03;2055195;28;20352;-46
2022/07/06 04:30:57;;;;;;;;;;;;;;;24.69;52.97;100196.66;2062342;28;19917;-46
2022/07/06 04:31:57;;;;;;;;;;;;;;;24.69;52.81;100191.16;2058366;28;20215;-45
2022/07/06 04:32:58;;;;;;;;;;;;;;;24.69;52.73;100191.16;2060511;28;20549;-48
2022/07/06 04:33:58;;;;;;;;;;;;;;;24.70;52.86;100198.41;2061658;28;19931;-46
2022/07/06 04:34:58;;;;;;;;;;;;;;;24.69;52.91;100202.16;2059551;28;20290;-47
2022/07/06 04:35:59;;;;;;;;;;;;;;;24.69;53.00;100204.94;2061333;28;20020;-49
2022/07/06 04:36:59;;;;;;;;;;;;;;;24.69;52.92;100207.69;2054765;28;19918;-47
2022/07/06 04:37:59;;;;;;;;;;;;;;;24.69;52.97;100204.94;2053848;28;19913;-46
2022/07/06 04:38:59;;;;;;;;;;;;;;;24.69;52.83;100207.69;2060419;28;19925;-46
2022/07/06 04:40:00;;;;;;;;;;;;;;;24.69;52.83;100224.22;2060935;28;19964;-47
2022/07/06 04:41:00;;;;;;;;;;;;;;;24.69;53.00;100213.19;2055838;28;19910;-46
2022/07/06 04:42:01;;;;;;;;;;;;;;;24.69;52.85;100213.19;2060462;28;19910;-46
2022/07/06 04:43:01;;;;;;;;;;;;;;;24.69;52.80;100212.34;2053669;28;19964;-47
2022/07/06 04:44:02;;;;;;;;;;;;;;;24.68;52.84;100214.25;2053404;28;19944;-47
2022/07/06 04:45:02;;;;;;;;;;;;;;;24.69;53.00;100215.09;2060032;28;19917;-45
2022/07/06 04:46:03;;;;;;;;;;;;;;;24.68;52.93;100216.16;2055683;28;19920;-47
2022/07/06 04:47:03;;;;;;;;;;;;;;;24.68;53.15;100222.53;2058178;28;19926;-47
2022/07/06 04:48:04;;;;;;;;;;;;;;;24.68;53.07;100225.28;2062568;28;19918;-45
2022/07/06 04:49:04;;;;;;;;;;;;;;;24.67;53.27;100223.56;2059963;28;20353;-45
2022/07/06 04:50:04;;;;;;;;;;;;;;;24.68;53.07;100233.53;2061034;28;19910;-46
2022/07/06 04:51:05;;;;;;;;;;;;;;;24.67;53.15;100231.84;2061232;28;20328;-47
2022/07/06 04:52:05;;;;;;;;;;;;;;;24.67;53.17;100237.34;2059624;28;19914;-46
2022/07/06 04:53:06;;;;;;;;;;;;;;;24.67;53.08;100240.13;2055995;28;19932;-47
2022/07/06 04:54:06;;;;;;;;;;;;;;;24.67;53.00;100242.88;2055904;28;19993;-45
2022/07/06 04:55:08;;;;;;;;;;;;;;;24.66;53.04;100246.66;2057095;28;19917;-46
2022/07/06 04:56:08;;;;;;;;;;;;;;;24.67;53.15;100247.50;2058588;28;20143;-46
2022/07/06 04:57:09;;;;;;;;;;;;;;;24.67;53.15;100250.25;2057496;28;20851;-45
2022/07/06 04:58:09;;;;;;;;;;;;;;;24.68;53.07;100249.22;2061531;28;20323;-46
2022/07/06 04:59:09;;;;;;;;;;;;;;;24.66;52.94;100246.66;2060053;28;19926;-46
2022/07/06 05:00:10;;;;;;;;;;;;;;;24.67;53.11;100253.91;2060604;28;20424;-45
2022/07/06 05:01:10;;;;;;;;;;;;;;;24.67;53.08;100248.38;2055055;28;19924;-49
2022/07/06 05:02:10;;;;;;;;;;;;;;;24.67;52.96;100253.91;2059494;28;19925;-46
2022/07/06 05:03:11;;;;;;;;;;;;;;;24.66;52.97;100254.91;2060893;28;19917;-46
2022/07/06 05:04:11;;;;;;;;;;;;;;;24.67;52.91;100264.91;2056167;28;19922;-45
2022/07/06 05:05:11;;;;;;;;;;;;;;;24.67;52.90;100267.69;2060166;28;20750;-46
2022/07/06 05:06:12;;;;;;;;;;;;;;;24.68;52.91;100269.38;2052579;28;19928;-46
2022/07/06 05:07:12;;;;;;;;;;;;;;;24.68;52.92;100274.03;2052328;28;20008;-46
2022/07/06 05:08:12;;;;;;;;;;;;;;;24.67;52.78;100275.94;2061112;28;20004;-49
2022/07/06 05:09:13;;;;;;;;;;;;;;;24.67;53.07;100281.47;2059840;28;20299;-48
2022/07/06 05:10:13;;;;;;;;;;;;;;;24.66;53.01;100282.47;2053651;28;19922;-46
2022/07/06 05:11:13;;;;;;;;;;;;;;;24.68;53.01;100285.06;2055156;28;20534;-47
2022/07/06 05:12:14;;;;;;;;;;;;;;;24.67;52.91;100286.97;2060182;28;20464;-47